sensor_id;sensor_type;location;lat;lon;timestamp;pressure;altitude;pressure_sealevel;temperature;humidity
64340;BME280;63709;53.258;-8.814;2023-07-08T00:01:23;100122.31;;;21.35;100.00
64340;BME280;63709;53.258;-8.814;2023-07-08T00:03:49;100148.69;;;21.41;100.00
64340;BME280;63709;53.258;-8.814;2023-07-08T00:06:25;100140.75;;;21.46;100.00
64340;BME280;63709;53.258;-8.814;2023-07-08T00:08:53;100126.69;;;21.30;100.00
64340;BME280;63709;53.258;-8.814;2023-07-08T00:11:19;100120.00;;;21.32;100.00
64340;BME280;63709;53.258;-8.814;2023-07-08T00:13:45;100120.31;;;21.57;100.00
64340;BME280;63709;53.258;-8.814;2023-07-08T00:16:14;100105.50;;;21.60;100.00
64340;BME280;63709;53.258;-8.814;2023-07-08T00:18:40;100088.03;;;21.27;100.00
64340;BME280;63709;53.258;-8.814;2023-07-08T00:21:11;100103.59;;;21.47;100.00
64340;BME280;63709;53.258;-8.814;2023-07-08T00:23:43;100103.59;;;21.54;100.00
64340;BME280;63709;53.258;-8.814;2023-07-08T00:26:29;100103.84;;;21.59;100.00
64340;BME280;63709;53.258;-8.814;2023-07-08T00:28:56;100105.34;;;21.74;100.00
64340;BME280;63709;53.258;-8.814;2023-07-08T00:31:23;100087.53;;;21.65;100.00
64340;BME280;63709;53.258;-8.814;2023-07-08T00:33:51;100095.09;;;21.70;100.00
64340;BME280;63709;53.258;-8.814;2023-07-08T00:36:17;100084.84;;;21.72;100.00
64340;BME280;63709;53.258;-8.814;2023-07-08T00:38:43;100068.53;;;21.72;100.00
64340;BME280;63709;53.258;-8.814;2023-07-08T00:41:20;100085.25;;;21.62;100.00
64340;BME280;63709;53.258;-8.814;2023-07-08T00:43:53;100082.75;;;21.74;100.00
64340;BME280;63709;53.258;-8.814;2023-07-08T00:47:04;100083.38;;;21.63;100.00
64340;BME280;63709;53.258;-8.814;2023-07-08T00:49:50;100077.16;;;21.89;100.00
64340;BME280;63709;53.258;-8.814;2023-07-08T00:52:28;100064.81;;;21.73;100.00
64340;BME280;63709;53.258;-8.814;2023-07-08T00:55:06;100080.06;;;21.94;100.00
64340;BME280;63709;53.258;-8.814;2023-07-08T00:57:39;100050.34;;;21.72;100.00
64340;BME280;63709;53.258;-8.814;2023-07-08T01:00:12;100069.19;;;21.87;100.00
64340;BME280;63709;53.258;-8.814;2023-07-08T01:02:49;100041.34;;;21.65;100.00
64340;BME280;63709;53.258;-8.814;2023-07-08T01:05:22;100052.47;;;21.84;100.00
64340;BME280;63709;53.258;-8.814;2023-07-08T01:07:51;100047.66;;;21.79;100.00
64340;BME280;63709;53.258;-8.814;2023-07-08T01:10:30;100050.81;;;21.89;100.00
64340;BME280;63709;53.258;-8.814;2023-07-08T01:13:05;100035.97;;;21.85;100.00
64340;BME280;63709;53.258;-8.814;2023-07-08T01:15:40;100033.25;;;21.85;100.00
64340;BME280;63709;53.258;-8.814;2023-07-08T01:18:15;100023.00;;;21.87;100.00
64340;BME280;63709;53.258;-8.814;2023-07-08T01:20:46;100023.84;;;21.94;100.00
64340;BME280;63709;53.258;-8.814;2023-07-08T01:23:17;100015.47;;;21.83;100.00
64340;BME280;63709;53.258;-8.814;2023-07-08T01:25:46;100022.81;;;21.95;100.00
64340;BME280;63709;53.258;-8.814;2023-07-08T01:28:17;100027.63;;;22.00;100.00
64340;BME280;63709;53.258;-8.814;2023-07-08T01:30:46;100021.34;;;21.99;100.00
64340;BME280;63709;53.258;-8.814;2023-07-08T01:33:20;100012.75;;;21.89;100.00
64340;BME280;63709;53.258;-8.814;2023-07-08T01:35:52;99992.50;;;21.85;100.00
64340;BME280;63709;53.258;-8.814;2023-07-08T01:38:24;99970.13;;;21.83;100.00
64340;BME280;63709;53.258;-8.814;2023-07-08T01:40:56;99984.53;;;21.90;100.00
64340;BME280;63709;53.258;-8.814;2023-07-08T01:43:24;99968.47;;;21.89;100.00
64340;BME280;63709;53.258;-8.814;2023-07-08T01:45:50;99996.44;;;22.09;100.00
64340;BME280;63709;53.258;-8.814;2023-07-08T01:48:19;99957.41;;;21.77;100.00
64340;BME280;63709;53.258;-8.814;2023-07-08T01:50:58;99971.59;;;21.99;100.00
64340;BME280;63709;53.258;-8.814;2023-07-08T01:53:43;99972.41;;;22.06;100.00
64340;BME280;63709;53.258;-8.814;2023-07-08T01:56:11;99938.78;;;21.74;100.00
64340;BME280;63709;53.258;-8.814;2023-07-08T01:58:38;99954.22;;;22.00;100.00
64340;BME280;63709;53.258;-8.814;2023-07-08T02:01:05;99932.50;;;22.00;100.00
64340;BME280;63709;53.258;-8.814;2023-07-08T02:03:31;99937.53;;;21.90;100.00
64340;BME280;63709;53.258;-8.814;2023-07-08T02:06:01;99931.44;;;22.08;100.00
64340;BME280;63709;53.258;-8.814;2023-07-08T02:08:26;99935.41;;;22.05;100.00
64340;BME280;63709;53.258;-8.814;2023-07-08T02:10:56;99931.25;;;21.83;100.00
64340;BME280;63709;53.258;-8.814;2023-07-08T02:13:23;99915.19;;;21.81;100.00
64340;BME280;63709;53.258;-8.814;2023-07-08T02:15:51;99935.22;;;21.87;100.00
64340;BME280;63709;53.258;-8.814;2023-07-08T02:18:17;99922.22;;;22.09;100.00
64340;BME280;63709;53.258;-8.814;2023-07-08T02:20:45;99919.94;;;22.06;100.00
64340;BME280;63709;53.258;-8.814;2023-07-08T02:23:11;99910.56;;;21.88;100.00
64340;BME280;63709;53.258;-8.814;2023-07-08T02:25:37;99875.25;;;21.75;100.00
64340;BME280;63709;53.258;-8.814;2023-07-08T02:28:06;99889.66;;;21.95;100.00
64340;BME280;63709;53.258;-8.814;2023-07-08T02:30:33;99854.81;;;21.59;100.00
64340;BME280;63709;53.258;-8.814;2023-07-08T02:33:02;99858.94;;;21.88;100.00
64340;BME280;63709;53.258;-8.814;2023-07-08T02:35:30;99848.56;;;21.52;100.00
64340;BME280;63709;53.258;-8.814;2023-07-08T02:37:57;99862.72;;;21.81;100.00
64340;BME280;63709;53.258;-8.814;2023-07-08T02:40:23;99860.19;;;21.79;100.00
64340;BME280;63709;53.258;-8.814;2023-07-08T02:42:49;99852.84;;;21.99;100.00
64340;BME280;63709;53.258;-8.814;2023-07-08T02:45:17;99865.22;;;21.82;100.00
64340;BME280;63709;53.258;-8.814;2023-07-08T02:47:44;99838.28;;;21.67;100.00
64340;BME280;63709;53.258;-8.814;2023-07-08T02:50:11;99827.88;;;21.51;100.00
64340;BME280;63709;53.258;-8.814;2023-07-08T02:52:39;99838.47;;;21.72;100.00
64340;BME280;63709;53.258;-8.814;2023-07-08T02:55:06;99852.47;;;21.76;100.00
64340;BME280;63709;53.258;-8.814;2023-07-08T02:57:32;99815.91;;;21.72;100.00
64340;BME280;63709;53.258;-8.814;2023-07-08T02:59:59;99807.59;;;21.54;100.00
64340;BME280;63709;53.258;-8.814;2023-07-08T03:02:27;99829.50;;;21.72;100.00
64340;BME280;63709;53.258;-8.814;2023-07-08T03:04:55;99792.16;;;21.47;100.00
64340;BME280;63709;53.258;-8.814;2023-07-08T03:07:25;99822.44;;;21.51;100.00
64340;BME280;63709;53.258;-8.814;2023-07-08T03:09:56;99824.09;;;21.19;100.00
64340;BME280;63709;53.258;-8.814;2023-07-08T03:12:22;99804.91;;;21.47;100.00
64340;BME280;63709;53.258;-8.814;2023-07-08T03:14:48;99778.59;;;21.34;100.00
64340;BME280;63709;53.258;-8.814;2023-07-08T03:17:13;99777.53;;;21.42;100.00
64340;BME280;63709;53.258;-8.814;2023-07-08T03:19:40;99797.56;;;21.54;100.00
64340;BME280;63709;53.258;-8.814;2023-07-08T03:22:06;99791.94;;;21.09;100.00
64340;BME280;63709;53.258;-8.814;2023-07-08T03:24:34;99794.22;;;21.59;100.00
64340;BME280;63709;53.258;-8.814;2023-07-08T03:27:01;99772.34;;;21.40;100.00
64340;BME280;63709;53.258;-8.814;2023-07-08T03:29:30;99770.25;;;21.22;100.00
64340;BME280;63709;53.258;-8.814;2023-07-08T03:31:56;99792.34;;;21.53;100.00
64340;BME280;63709;53.258;-8.814;2023-07-08T03:34:22;99786.50;;;21.42;100.00
64340;BME280;63709;53.258;-8.814;2023-07-08T03:36:49;99786.50;;;21.49;100.00
64340;BME280;63709;53.258;-8.814;2023-07-08T03:39:19;99744.31;;;21.46;100.00
64340;BME280;63709;53.258;-8.814;2023-07-08T03:41:46;99764.56;;;21.57;100.00
64340;BME280;63709;53.258;-8.814;2023-07-08T03:44:16;99760.78;;;21.65;100.00
64340;BME280;63709;53.258;-8.814;2023-07-08T03:46:46;99763.06;;;21.68;100.00
64340;BME280;63709;53.258;-8.814;2023-07-08T03:49:16;99753.44;;;21.65;100.00
64340;BME280;63709;53.258;-8.814;2023-07-08T03:51:51;99760.16;;;21.63;100.00
64340;BME280;63709;53.258;-8.814;2023-07-08T03:54:22;99757.63;;;21.68;100.00
64340;BME280;63709;53.258;-8.814;2023-07-08T03:56:48;99720.91;;;21.59;100.00
64340;BME280;63709;53.258;-8.814;2023-07-08T03:59:15;99743.03;;;21.62;100.00
64340;BME280;63709;53.258;-8.814;2023-07-08T04:01:43;99744.25;;;21.73;100.00
64340;BME280;63709;53.258;-8.814;2023-07-08T04:04:11;99736.31;;;21.71;100.00
64340;BME280;63709;53.258;-8.814;2023-07-08T04:06:38;99732.75;;;21.78;100.00
64340;BME280;63709;53.258;-8.814;2023-07-08T04:09:10;99736.28;;;21.85;100.00
64340;BME280;63709;53.258;-8.814;2023-07-08T04:11:36;99735.47;;;21.78;100.00
64340;BME280;63709;53.258;-8.814;2023-07-08T04:14:04;99752.53;;;21.91;100.00
64340;BME280;63709;53.258;-8.814;2023-07-08T04:19:12;99763.06;;;21.68;100.00
64340;BME280;63709;53.258;-8.814;2023-07-08T04:21:47;99749.63;;;21.86;100.00
64340;BME280;63709;53.258;-8.814;2023-07-08T04:24:17;99749.19;;;21.89;100.00
64340;BME280;63709;53.258;-8.814;2023-07-08T04:26:44;99753.81;;;21.89;100.00
64340;BME280;63709;53.258;-8.814;2023-07-08T04:29:13;99744.63;;;21.83;100.00
64340;BME280;63709;53.258;-8.814;2023-07-08T04:31:41;99713.31;;;21.74;100.00
64340;BME280;63709;53.258;-8.814;2023-07-08T04:34:09;99746.25;;;21.91;100.00
64340;BME280;63709;53.258;-8.814;2023-07-08T04:36:36;99731.16;;;22.02;100.00
64340;BME280;63709;53.258;-8.814;2023-07-08T04:39:04;99724.53;;;21.91;100.00
64340;BME280;63709;53.258;-8.814;2023-07-08T04:41:32;99715.97;;;21.87;100.00
64340;BME280;63709;53.258;-8.814;2023-07-08T04:43:57;99731.81;;;21.97;100.00
64340;BME280;63709;53.258;-8.814;2023-07-08T04:46:52;99747.47;;;22.02;100.00
64340;BME280;63709;53.258;-8.814;2023-07-08T04:49:21;99753.72;;;22.09;100.00
64340;BME280;63709;53.258;-8.814;2023-07-08T04:51:48;99718.94;;;21.79;100.00
64340;BME280;63709;53.258;-8.814;2023-07-08T04:54:14;99757.06;;;22.11;100.00
64340;BME280;63709;53.258;-8.814;2023-07-08T04:56:44;99780.09;;;22.02;100.00
64340;BME280;63709;53.258;-8.814;2023-07-08T04:59:14;99793.28;;;21.91;100.00
64340;BME280;63709;53.258;-8.814;2023-07-08T05:01:45;99793.16;;;21.73;100.00
64340;BME280;63709;53.258;-8.814;2023-07-08T05:04:18;99812.38;;;21.71;100.00
64340;BME280;63709;53.258;-8.814;2023-07-08T05:06:44;99800.09;;;21.56;100.00
64340;BME280;63709;53.258;-8.814;2023-07-08T05:09:11;99801.13;;;21.55;100.00
64340;BME280;63709;53.258;-8.814;2023-07-08T05:11:37;99827.88;;;21.51;100.00
64340;BME280;63709;53.258;-8.814;2023-07-08T05:14:04;99831.44;;;21.38;100.00
64340;BME280;63709;53.258;-8.814;2023-07-08T05:16:32;99805.72;;;21.21;100.00
64340;BME280;63709;53.258;-8.814;2023-07-08T05:18:59;99821.59;;;21.11;100.00
64340;BME280;63709;53.258;-8.814;2023-07-08T05:21:29;99844.97;;;21.18;100.00
64340;BME280;63709;53.258;-8.814;2023-07-08T05:24:04;99825.13;;;21.05;100.00
64340;BME280;63709;53.258;-8.814;2023-07-08T05:26:32;99824.31;;;21.04;100.00
64340;BME280;63709;53.258;-8.814;2023-07-08T05:28:59;99820.75;;;20.97;100.00
64340;BME280;63709;53.258;-8.814;2023-07-08T05:31:27;99837.84;;;20.97;100.00
64340;BME280;63709;53.258;-8.814;2023-07-08T05:33:53;99832.44;;;20.97;100.00
64340;BME280;63709;53.258;-8.814;2023-07-08T05:36:21;99838.91;;;21.03;100.00
64340;BME280;63709;53.258;-8.814;2023-07-08T05:38:46;99832.44;;;20.97;100.00
64340;BME280;63709;53.258;-8.814;2023-07-08T05:41:14;99857.69;;;20.98;100.00
64340;BME280;63709;53.258;-8.814;2023-07-08T05:43:40;99827.84;;;20.91;100.00
64340;BME280;63709;53.258;-8.814;2023-07-08T05:46:07;99842.44;;;20.97;100.00
64340;BME280;63709;53.258;-8.814;2023-07-08T05:48:33;99835.38;;;20.96;100.00
64340;BME280;63709;53.258;-8.814;2023-07-08T05:50:59;99861.66;;;20.95;100.00
64340;BME280;63709;53.258;-8.814;2023-07-08T05:53:25;99852.84;;;20.80;100.00
64340;BME280;63709;53.258;-8.814;2023-07-08T05:55:50;99875.19;;;20.82;100.00
64340;BME280;63709;53.258;-8.814;2023-07-08T05:58:16;99886.69;;;20.84;100.00
64340;BME280;63709;53.258;-8.814;2023-07-08T06:00:43;99884.13;;;20.76;100.00
64340;BME280;63709;53.258;-8.814;2023-07-08T06:03:10;99881.22;;;20.71;100.00
64340;BME280;63709;53.258;-8.814;2023-07-08T06:05:38;99892.69;;;20.73;100.00
64340;BME280;63709;53.258;-8.814;2023-07-08T06:08:06;99876.81;;;20.63;100.00
64340;BME280;63709;53.258;-8.814;2023-07-08T06:10:32;99900.84;;;20.73;100.00
64340;BME280;63709;53.258;-8.814;2023-07-08T06:12:58;99878.00;;;20.54;100.00
64340;BME280;63709;53.258;-8.814;2023-07-08T06:15:26;99896.00;;;20.62;100.00
64340;BME280;63709;53.258;-8.814;2023-07-08T06:17:51;99902.50;;;20.74;100.00
64340;BME280;63709;53.258;-8.814;2023-07-08T06:20:17;99888.28;;;20.59;100.00
64340;BME280;63709;53.258;-8.814;2023-07-08T06:22:44;99881.84;;;20.66;100.00
64340;BME280;63709;53.258;-8.814;2023-07-08T06:25:12;99901.44;;;20.68;100.00
64340;BME280;63709;53.258;-8.814;2023-07-08T06:27:38;99925.84;;;20.62;100.00
64340;BME280;63709;53.258;-8.814;2023-07-08T06:30:13;99922.44;;;20.53;100.00
64340;BME280;63709;53.258;-8.814;2023-07-08T06:32:39;99928.53;;;20.62;100.00
64340;BME280;63709;53.258;-8.814;2023-07-08T06:35:05;99918.41;;;20.42;100.00
64340;BME280;63709;53.258;-8.814;2023-07-08T06:37:30;99965.13;;;20.44;100.00
64340;BME280;63709;53.258;-8.814;2023-07-08T06:39:58;99952.91;;;20.55;100.00
64340;BME280;63709;53.258;-8.814;2023-07-08T06:42:24;99965.75;;;20.46;100.00
64340;BME280;63709;53.258;-8.814;2023-07-08T06:44:50;99975.72;;;20.39;100.00
64340;BME280;63709;53.258;-8.814;2023-07-08T06:47:20;99973.66;;;20.41;100.00
64340;BME280;63709;53.258;-8.814;2023-07-08T06:49:47;99989.44;;;20.59;100.00
64340;BME280;63709;53.258;-8.814;2023-07-08T06:52:13;100010.56;;;20.42;100.00
64340;BME280;63709;53.258;-8.814;2023-07-08T06:54:40;100010.34;;;20.37;100.00
64340;BME280;63709;53.258;-8.814;2023-07-08T06:57:11;100016.53;;;20.31;100.00
64340;BME280;63709;53.258;-8.814;2023-07-08T06:59:39;100037.38;;;20.30;100.00
64340;BME280;63709;53.258;-8.814;2023-07-08T07:02:05;100031.69;;;20.19;100.00
64340;BME280;63709;53.258;-8.814;2023-07-08T07:04:31;100052.84;;;20.09;100.00
64340;BME280;63709;53.258;-8.814;2023-07-08T07:07:04;100065.19;;;20.11;100.00
64340;BME280;63709;53.258;-8.814;2023-07-08T07:09:31;100082.28;;;20.12;100.00
64340;BME280;63709;53.258;-8.814;2023-07-08T07:12:02;100073.31;;;19.90;100.00
64340;BME280;63709;53.258;-8.814;2023-07-08T07:14:30;100132.00;;;19.82;100.00
64340;BME280;63709;53.258;-8.814;2023-07-08T07:16:56;100166.38;;;19.82;100.00
64340;BME280;63709;53.258;-8.814;2023-07-08T07:19:22;100175.84;;;19.71;100.00
64340;BME280;63709;53.258;-8.814;2023-07-08T07:21:47;100200.03;;;19.58;100.00
64340;BME280;63709;53.258;-8.814;2023-07-08T07:24:13;100228.69;;;19.67;100.00
64340;BME280;63709;53.258;-8.814;2023-07-08T07:26:39;100248.34;;;19.61;100.00
64340;BME280;63709;53.258;-8.814;2023-07-08T07:29:05;100238.56;;;19.45;100.00
64340;BME280;63709;53.258;-8.814;2023-07-08T07:31:30;100273.03;;;19.51;100.00
64340;BME280;63709;53.258;-8.814;2023-07-08T07:33:59;100286.19;;;19.54;100.00
64340;BME280;63709;53.258;-8.814;2023-07-08T07:36:26;100294.31;;;19.40;100.00
64340;BME280;63709;53.258;-8.814;2023-07-08T07:38:52;100315.41;;;19.44;100.00
64340;BME280;63709;53.258;-8.814;2023-07-08T07:41:18;100330.50;;;19.39;100.00
64340;BME280;63709;53.258;-8.814;2023-07-08T07:43:44;100330.91;;;19.36;100.00
64340;BME280;63709;53.258;-8.814;2023-07-08T07:46:10;100324.88;;;19.10;100.00
64340;BME280;63709;53.258;-8.814;2023-07-08T07:48:39;100390.13;;;19.30;100.00
64340;BME280;63709;53.258;-8.814;2023-07-08T07:51:05;100374.94;;;19.06;100.00
64340;BME280;63709;53.258;-8.814;2023-07-08T07:53:33;100372.53;;;18.89;100.00
64340;BME280;63709;53.258;-8.814;2023-07-08T07:56:02;100421.94;;;19.05;100.00
64340;BME280;63709;53.258;-8.814;2023-07-08T07:58:30;100408.72;;;18.88;100.00
64340;BME280;63709;53.258;-8.814;2023-07-08T08:00:56;100399.41;;;18.90;100.00
64340;BME280;63709;53.258;-8.814;2023-07-08T08:03:22;100438.84;;;19.07;100.00
64340;BME280;63709;53.258;-8.814;2023-07-08T08:05:49;100442.59;;;19.06;100.00
64340;BME280;63709;53.258;-8.814;2023-07-08T08:08:16;100455.72;;;19.09;100.00
64340;BME280;63709;53.258;-8.814;2023-07-08T08:10:45;100468.88;;;19.21;100.00
64340;BME280;63709;53.258;-8.814;2023-07-08T08:13:16;100482.00;;;19.24;100.00
64340;BME280;63709;53.258;-8.814;2023-07-08T08:15:42;100480.41;;;19.38;100.00
64340;BME280;63709;53.258;-8.814;2023-07-08T08:18:09;100494.41;;;19.41;100.00
64340;BME280;63709;53.258;-8.814;2023-07-08T08:20:47;100496.09;;;19.42;100.00
64340;BME280;63709;53.258;-8.814;2023-07-08T08:23:15;100482.97;;;19.31;100.00
64340;BME280;63709;53.258;-8.814;2023-07-08T08:25:42;100512.03;;;19.60;100.00
64340;BME280;63709;53.258;-8.814;2023-07-08T08:28:09;100508.19;;;19.54;100.00
64340;BME280;63709;53.258;-8.814;2023-07-08T08:30:35;100497.72;;;19.51;100.00
64340;BME280;63709;53.258;-8.814;2023-07-08T08:33:01;100510.91;;;19.54;100.00
64340;BME280;63709;53.258;-8.814;2023-07-08T08:35:28;100534.00;;;19.65;100.00
64340;BME280;63709;53.258;-8.814;2023-07-08T08:37:55;100555.88;;;19.64;100.00
64340;BME280;63709;53.258;-8.814;2023-07-08T08:40:21;100561.09;;;19.65;100.00
64340;BME280;63709;53.258;-8.814;2023-07-08T08:42:53;100543.91;;;19.50;100.00
64340;BME280;63709;53.258;-8.814;2023-07-08T08:45:23;100558.97;;;19.52;100.00
64340;BME280;63709;53.258;-8.814;2023-07-08T08:48:00;100546.88;;;19.40;100.00
64340;BME280;63709;53.258;-8.814;2023-07-08T08:50:30;100575.16;;;19.61;100.00
64340;BME280;63709;53.258;-8.814;2023-07-08T08:53:04;100560.84;;;19.52;100.00
64340;BME280;63709;53.258;-8.814;2023-07-08T08:55:32;100577.53;;;19.64;100.00
64340;BME280;63709;53.258;-8.814;2023-07-08T09:01:08;100606.66;;;19.85;100.00
64340;BME280;63709;53.258;-8.814;2023-07-08T09:04:00;100611.34;;;19.91;100.00
64340;BME280;63709;53.258;-8.814;2023-07-08T09:06:31;100612.75;;;19.87;100.00
64340;BME280;63709;53.258;-8.814;2023-07-08T09:09:10;100605.84;;;19.84;100.00
64340;BME280;63709;53.258;-8.814;2023-07-08T09:11:52;100633.16;;;19.97;100.00
64340;BME280;63709;53.258;-8.814;2023-07-08T09:14:32;100620.38;;;19.83;100.00
64340;BME280;63709;53.258;-8.814;2023-07-08T09:19:35;100655.56;;;19.91;100.00
64340;BME280;63709;53.258;-8.814;2023-07-08T09:24:48;100663.34;;;19.63;100.00
64340;BME280;63709;53.258;-8.814;2023-07-08T09:27:14;100660.03;;;19.45;100.00
64340;BME280;63709;53.258;-8.814;2023-07-08T09:29:40;100696.34;;;19.58;100.00
64340;BME280;63709;53.258;-8.814;2023-07-08T09:32:19;100713.59;;;19.57;100.00
64340;BME280;63709;53.258;-8.814;2023-07-08T09:34:51;100705.50;;;19.66;100.00
64340;BME280;63709;53.258;-8.814;2023-07-08T09:37:29;100713.84;;;19.79;100.00
64340;BME280;63709;53.258;-8.814;2023-07-08T09:39:57;100710.66;;;19.75;100.00
64340;BME280;63709;53.258;-8.814;2023-07-08T09:42:28;100719.63;;;19.76;100.00
64340;BME280;63709;53.258;-8.814;2023-07-08T09:44:56;100740.91;;;19.87;100.00
64340;BME280;63709;53.258;-8.814;2023-07-08T09:47:29;100729.72;;;19.90;100.00
64340;BME280;63709;53.258;-8.814;2023-07-08T09:50:00;100753.88;;;20.00;100.00
64340;BME280;63709;53.258;-8.814;2023-07-08T09:52:31;100763.13;;;20.14;100.00
64340;BME280;63709;53.258;-8.814;2023-07-08T09:55:00;100764.53;;;20.33;100.00
64340;BME280;63709;53.258;-8.814;2023-07-08T09:57:33;100773.03;;;20.52;100.00
64340;BME280;63709;53.258;-8.814;2023-07-08T10:00:07;100778.03;;;20.64;100.00
64340;BME280;63709;53.258;-8.814;2023-07-08T10:05:40;100798.69;;;20.65;100.00
64340;BME280;63709;53.258;-8.814;2023-07-08T10:08:16;100792.03;;;20.52;100.00
64340;BME280;63709;53.258;-8.814;2023-07-08T10:10:43;100815.28;;;20.39;100.00
64340;BME280;63709;53.258;-8.814;2023-07-08T10:13:41;100815.88;;;20.26;100.00
64340;BME280;63709;53.258;-8.814;2023-07-08T10:16:27;100808.16;;;20.15;100.00
64340;BME280;63709;53.258;-8.814;2023-07-08T10:18:53;100810.94;;;20.06;100.00
64340;BME280;63709;53.258;-8.814;2023-07-08T10:24:37;100801.38;;;20.19;100.00
64340;BME280;63709;53.258;-8.814;2023-07-08T10:26:37;100786.22;;;20.33;100.00
64340;BME280;63709;53.258;-8.814;2023-07-08T10:29:24;100817.56;;;20.81;100.00
64340;BME280;63709;53.258;-8.814;2023-07-08T10:32:17;100807.81;;;21.24;100.00
64340;BME280;63709;53.258;-8.814;2023-07-08T10:34:57;100800.97;;;21.52;100.00
64340;BME280;63709;53.258;-8.814;2023-07-08T10:42:38;100835.63;;;21.79;100.00
64340;BME280;63709;53.258;-8.814;2023-07-08T10:45:23;100821.28;;;21.70;100.00
64340;BME280;63709;53.258;-8.814;2023-07-08T10:48:39;100816.13;;;21.61;100.00
64340;BME280;63709;53.258;-8.814;2023-07-08T10:51:29;100841.44;;;21.76;100.00
64340;BME280;63709;53.258;-8.814;2023-07-08T10:57:17;100844.34;;;21.60;100.00
64340;BME280;63709;53.258;-8.814;2023-07-08T11:00:23;100853.59;;;21.50;100.00
64340;BME280;63709;53.258;-8.814;2023-07-08T11:03:20;100875.78;;;21.39;100.00
64340;BME280;63709;53.258;-8.814;2023-07-08T11:06:10;100889.47;;;21.46;100.00
64340;BME280;63709;53.258;-8.814;2023-07-08T11:08:47;100886.56;;;21.24;100.00
64340;BME280;63709;53.258;-8.814;2023-07-08T11:16:41;100931.72;;;21.02;100.00
64340;BME280;63709;53.258;-8.814;2023-07-08T11:19:16;100928.88;;;20.96;100.00
64340;BME280;63709;53.258;-8.814;2023-07-08T11:21:49;100921.16;;;20.85;100.00
64340;BME280;63709;53.258;-8.814;2023-07-08T11:24:37;100907.19;;;20.96;100.00
64340;BME280;63709;53.258;-8.814;2023-07-08T11:29:46;100939.38;;;22.12;100.00
64340;BME280;63709;53.258;-8.814;2023-07-08T11:32:18;100942.13;;;22.27;100.00
64340;BME280;63709;53.258;-8.814;2023-07-08T11:34:47;100952.16;;;22.27;100.00
64340;BME280;63709;53.258;-8.814;2023-07-08T11:37:15;100918.19;;;21.93;100.00
64340;BME280;63709;53.258;-8.814;2023-07-08T11:39:45;100968.91;;;22.01;100.00
64340;BME280;63709;53.258;-8.814;2023-07-08T11:42:21;100950.22;;;21.68;100.00
64340;BME280;63709;53.258;-8.814;2023-07-08T11:44:56;100971.22;;;21.36;100.00
64340;BME280;63709;53.258;-8.814;2023-07-08T11:49:57;100982.41;;;21.10;100.00
64340;BME280;63709;53.258;-8.814;2023-07-08T11:52:23;100982.44;;;21.02;100.00
64340;BME280;63709;53.258;-8.814;2023-07-08T11:54:57;100972.38;;;20.88;100.00
64340;BME280;63709;53.258;-8.814;2023-07-08T11:57:30;100980.31;;;20.89;100.00
64340;BME280;63709;53.258;-8.814;2023-07-08T12:00:16;100946.78;;;20.82;100.00
64340;BME280;63709;53.258;-8.814;2023-07-08T12:02:56;100972.44;;;21.02;100.00
64340;BME280;63709;53.258;-8.814;2023-07-08T12:05:36;100955.84;;;20.97;100.00
64340;BME280;63709;53.258;-8.814;2023-07-08T12:08:12;100957.50;;;21.07;100.00
64340;BME280;63709;53.258;-8.814;2023-07-08T12:10:41;100981.44;;;21.26;100.00
64340;BME280;63709;53.258;-8.814;2023-07-08T12:13:18;100985.38;;;21.46;100.00
64340;BME280;63709;53.258;-8.814;2023-07-08T12:15:44;100971.91;;;21.53;100.00
64340;BME280;63709;53.258;-8.814;2023-07-08T12:18:16;100999.72;;;21.78;100.00
64340;BME280;63709;53.258;-8.814;2023-07-08T12:20:46;100988.16;;;21.76;100.00
64340;BME280;63709;53.258;-8.814;2023-07-08T12:23:19;100977.41;;;21.83;100.00
64340;BME280;63709;53.258;-8.814;2023-07-08T12:25:45;100996.84;;;22.09;100.00
64340;BME280;63709;53.258;-8.814;2023-07-08T12:28:11;101016.00;;;22.31;100.00
64340;BME280;63709;53.258;-8.814;2023-07-08T12:30:38;101030.94;;;22.35;100.00
64340;BME280;63709;53.258;-8.814;2023-07-08T12:33:31;101027.94;;;22.44;100.00
64340;BME280;63709;53.258;-8.814;2023-07-08T12:36:00;101013.66;;;22.42;100.00
64340;BME280;63709;53.258;-8.814;2023-07-08T12:38:37;101001.94;;;22.27;100.00
64340;BME280;63709;53.258;-8.814;2023-07-08T12:41:20;101028.69;;;22.53;100.00
64340;BME280;63709;53.258;-8.814;2023-07-08T12:43:47;101021.81;;;22.57;100.00
64340;BME280;63709;53.258;-8.814;2023-07-08T12:46:14;101017.16;;;22.51;100.00
64340;BME280;63709;53.258;-8.814;2023-07-08T12:48:42;101027.38;;;22.49;100.00
64340;BME280;63709;53.258;-8.814;2023-07-08T12:51:19;101013.75;;;22.49;100.00
64340;BME280;63709;53.258;-8.814;2023-07-08T12:53:51;101013.03;;;22.55;100.00
64340;BME280;63709;53.258;-8.814;2023-07-08T12:56:18;101019.94;;;22.58;100.00
64340;BME280;63709;53.258;-8.814;2023-07-08T12:58:56;101001.28;;;22.55;100.00
64340;BME280;63709;53.258;-8.814;2023-07-08T13:01:25;101005.88;;;22.54;100.00
64340;BME280;63709;53.258;-8.814;2023-07-08T13:03:56;101034.38;;;22.88;100.00
64340;BME280;63709;53.258;-8.814;2023-07-08T13:06:29;101030.53;;;22.82;100.00
64340;BME280;63709;53.258;-8.814;2023-07-08T13:09:11;100983.94;;;22.56;100.00
64340;BME280;63709;53.258;-8.814;2023-07-08T13:11:46;101033.59;;;23.09;100.00
64340;BME280;63709;53.258;-8.814;2023-07-08T13:14:14;101017.13;;;22.96;100.00
64340;BME280;63709;53.258;-8.814;2023-07-08T13:16:40;101016.72;;;22.99;100.00
64340;BME280;63709;53.258;-8.814;2023-07-08T13:19:12;101032.16;;;23.13;98.31
64340;BME280;63709;53.258;-8.814;2023-07-08T13:21:41;101033.88;;;23.14;94.83
64340;BME280;63709;53.258;-8.814;2023-07-08T13:24:11;101040.31;;;23.49;99.69
64340;BME280;63709;53.258;-8.814;2023-07-08T13:26:37;101037.16;;;23.67;100.00
64340;BME280;63709;53.258;-8.814;2023-07-08T13:29:13;101032.25;;;23.84;95.48